Time;durP1;ratioP1;P1;durP2;ratioP2;P2;SDS_P1;SDS_P2;PMS_P1;PMS_P2;Temp;Humidity;BMP_temperature;BMP_pressure;BME280_temperature;BME280_humidity;BME280_pressure;Samples;Min_cycle;Max_cycle;Signal;HPM_P1;HPM_P2
2022/06/08 00:01:12;;;;;;;4.53;3.15;;;;;;;18.12;94.27;98051.75;4499646;31;20080;-73
2022/06/08 00:03:45;;;;;;;4.82;3.00;;;;;;;18.14;93.97;98054.22;4500864;31;20408;-72
2022/06/08 00:06:14;;;;;;;4.25;3.30;;;;;;;18.14;93.96;98057.69;4500827;31;20079;-72
2022/06/08 00:08:42;;;;;;;3.40;2.83;;;;;;;18.10;93.98;98051.16;4500975;31;20110;-72
2022/06/08 00:11:09;;;;;;;3.80;2.90;;;;;;;17.93;95.17;98048.09;4500627;31;20102;-72
2022/06/08 00:13:37;;;;;;;4.78;3.05;;;;;;;17.87;95.42;98051.53;4501022;31;20118;-72
2022/06/08 00:16:06;;;;;;;6.95;2.83;;;;;;;17.83;95.47;98051.09;4499736;31;20416;-72
2022/06/08 00:18:33;;;;;;;5.25;3.00;;;;;;;17.72;95.99;98051.69;4500589;31;20095;-72
2022/06/08 00:21:00;;;;;;;4.65;3.12;;;;;;;17.56;96.90;98060.81;4500988;31;20602;-72
2022/06/08 00:23:28;;;;;;;4.85;2.85;;;;;;;17.62;96.75;98045.97;4500726;31;20089;-72
2022/06/08 00:25:55;;;;;;;4.15;3.00;;;;;;;17.54;97.73;98047.78;4500669;31;20371;-72
2022/06/08 00:28:22;;;;;;;7.85;3.17;;;;;;;17.50;98.41;98038.62;4501005;31;20152;-72
2022/06/08 00:30:50;;;;;;;4.07;3.30;;;;;;;17.51;98.65;98048.16;4503059;31;20125;-72
2022/06/08 00:33:17;;;;;;;4.75;3.10;;;;;;;17.42;99.00;98040.63;4516549;31;20111;-72
2022/06/08 00:35:44;;;;;;;4.95;3.50;;;;;;;17.34;99.59;98038.97;4516425;31;20649;-73
2022/06/08 00:38:11;;;;;;;4.47;3.15;;;;;;;17.40;99.85;98045.31;4516526;31;20147;-72
2022/06/08 00:40:45;;;;;;;5.50;2.90;;;;;;;17.35;100.00;98044.06;4516219;31;20092;-72
2022/06/08 00:43:12;;;;;;;5.30;3.45;;;;;;;17.35;100.00;98043.22;4516619;31;20088;-72
2022/06/08 00:45:39;;;;;;;5.68;3.15;;;;;;;17.38;100.00;98048.97;4502055;31;20138;-72
2022/06/08 00:48:07;;;;;;;3.62;3.12;;;;;;;17.40;100.00;98059.34;4516356;31;20487;-72
2022/06/08 00:50:40;;;;;;;3.97;3.10;;;;;;;17.38;100.00;98091.31;4516284;31;20087;-72
2022/06/08 00:53:08;;;;;;;4.07;2.85;;;;;;;17.48;99.84;98175.69;4516244;31;20152;-72
2022/06/08 00:55:37;;;;;;;3.62;3.10;;;;;;;17.42;100.00;98208.25;4501899;31;20099;-72
2022/06/08 00:58:11;;;;;;;3.40;3.08;;;;;;;17.44;100.00;98173.63;4516057;31;20151;-72
2022/06/08 01:00:41;;;;;;;3.60;2.78;;;;;;;17.34;100.00;98152.81;4516208;31;20147;-73
2022/06/08 01:03:10;;;;;;;5.85;3.33;;;;;;;17.23;100.00;98124.22;4516358;31;20088;-72
2022/06/08 01:05:56;;;;;;;3.92;3.00;;;;;;;17.11;100.00;98127.44;4516366;31;20149;-72
2022/06/08 01:08:28;;;;;;;4.15;2.95;;;;;;;17.02;100.00;98131.25;4516303;31;20532;-72
2022/06/08 01:10:59;;;;;;;3.37;3.08;;;;;;;16.90;100.00;98130.97;4516188;31;20087;-72
2022/06/08 01:13:29;;;;;;;3.30;2.85;;;;;;;16.71;100.00;98116.56;4501623;31;20095;-72
2022/06/08 01:15:56;;;;;;;7.50;3.37;;;;;;;16.58;100.00;98111.16;4501890;31;20179;-72
2022/06/08 01:18:23;;;;;;;3.67;2.90;;;;;;;16.49;100.00;98097.28;4515843;31;20112;-72
2022/06/08 01:21:21;;;;;;;4.72;3.10;;;;;;;16.32;100.00;98096.72;4515819;31;20091;-72
2022/06/08 01:23:51;;;;;;;3.97;3.50;;;;;;;16.24;100.00;98083.66;4450241;32;20104;-72
2022/06/08 01:26:45;;;;;;;4.72;3.70;;;;;;;16.06;100.00;98082.28;4437949;32;20131;-72
2022/06/08 01:29:23;;;;;;;6.43;3.80;;;;;;;15.92;100.00;98070.75;4439687;32;20693;-73
2022/06/08 01:32:07;;;;;;;7.03;3.97;;;;;;;15.80;100.00;98080.19;4439617;32;20101;-73
2022/06/08 01:35:01;;;;;;;5.40;3.90;;;;;;;15.76;100.00;98082.38;4452438;32;20115;-73
2022/06/08 01:38:02;;;;;;;6.47;4.00;;;;;;;15.79;100.00;98082.03;4452509;32;20101;-73
2022/06/08 01:40:54;;;;;;;5.47;4.07;;;;;;;15.81;100.00;98078.41;4452018;32;20315;-73
2022/06/08 01:43:33;;;;;;;6.30;3.85;;;;;;;15.74;100.00;98079.09;4452389;32;20076;-73
2022/06/08 01:46:08;;;;;;;7.32;4.55;;;;;;;15.78;100.00;98059.25;4439790;32;20520;-73
2022/06/08 01:48:36;;;;;;;6.10;3.90;;;;;;;15.70;100.00;98055.88;4439764;32;20196;-73
2022/06/08 01:51:18;;;;;;;6.25;4.12;;;;;;;15.65;100.00;98050.34;4452548;32;20593;-73
2022/06/08 01:54:01;;;;;;;6.00;4.15;;;;;;;15.56;100.00;98044.38;4452635;32;20512;-73
2022/06/08 01:56:48;;;;;;;7.37;4.95;;;;;;;15.54;100.00;98044.56;4452498;32;20129;-73
2022/06/08 01:59:21;;;;;;;6.60;4.50;;;;;;;15.58;100.00;98048.47;4452633;32;20113;-73
2022/06/08 02:02:06;;;;;;;5.32;3.95;;;;;;;15.54;100.00;98049.03;4499194;31;20162;-73
2022/06/08 02:04:46;;;;;;;5.50;4.00;;;;;;;15.62;100.00;98062.09;4518077;31;20803;-73
2022/06/08 02:07:54;;;;;;;7.25;4.40;;;;;;;15.66;100.00;98079.22;4503155;31;20088;-73
2022/06/08 02:10:32;;;;;;;4.97;4.20;;;;;;;15.62;100.00;98085.88;4517465;31;20127;-73
2022/06/08 02:13:12;;;;;;;6.35;4.43;;;;;;;15.61;100.00;98100.91;4517767;31;20150;-74
2022/06/08 02:15:43;;;;;;;5.60;4.50;;;;;;;15.60;100.00;98116.91;4503531;31;20138;-74
2022/06/08 02:18:18;;;;;;;5.75;4.28;;;;;;;15.61;100.00;98119.37;4517908;31;20145;-73
2022/06/08 02:20:51;;;;;;;5.72;4.00;;;;;;;15.66;100.00;98118.00;4503205;31;20100;-73
2022/06/08 02:23:22;;;;;;;5.82;3.87;;;;;;;15.65;100.00;98114.53;4517629;31;20096;-73
2022/06/08 02:26:00;;;;;;;5.50;3.70;;;;;;;15.59;100.00;98102.06;4491062;31;20441;-73
2022/06/08 02:28:35;;;;;;;5.45;4.20;;;;;;;15.60;100.00;98109.00;4503302;31;20103;-73
2022/06/08 02:31:43;;;;;;;9.10;3.70;;;;;;;15.54;100.00;98112.38;4517781;31;20088;-73
2022/06/08 02:34:34;;;;;;;8.77;3.87;;;;;;;15.54;100.00;98123.75;4517633;31;20103;-73
2022/06/08 02:37:10;;;;;;;26.08;4.78;;;;;;;15.54;100.00;98123.75;4504766;31;20083;-73
2022/06/08 02:39:45;;;;;;;10.05;4.30;;;;;;;15.52;100.00;98119.66;4501838;31;20096;-74
2022/06/08 02:42:19;;;;;;;9.32;4.85;;;;;;;15.46;100.00;98115.12;4503207;31;20103;-74
2022/06/08 02:44:49;;;;;;;7.57;4.37;;;;;;;15.35;100.00;98104.06;4502943;31;20130;-75
2022/06/08 02:47:19;;;;;;;7.95;4.28;;;;;;;15.35;100.00;98105.84;4503292;31;20462;-75
2022/06/08 02:49:46;;;;;;;5.80;4.28;;;;;;;15.34;100.00;98097.13;4517219;31;20100;-75
2022/06/08 02:52:23;;;;;;;6.62;4.47;;;;;;;15.35;100.00;98079.47;4517620;31;20115;-75
2022/06/08 02:54:53;;;;;;;9.13;5.07;;;;;;;15.26;100.00;98065.53;4517310;31;20083;-75
2022/06/08 02:57:41;;;;;;;9.10;5.03;;;;;;;15.25;100.00;98056.81;4517339;31;20683;-75
2022/06/08 03:00:13;;;;;;;9.18;5.45;;;;;;;15.25;100.00;98058.66;4503101;31;20164;-76
2022/06/08 03:02:40;;;;;;;7.20;5.32;;;;;;;15.25;100.00;98056.00;4517485;31;20083;-76
2022/06/08 03:05:41;;;;;;;8.98;5.87;;;;;;;15.24;100.00;98054.38;4517411;31;20465;-75
2022/06/08 03:08:14;;;;;;;6.93;5.37;;;;;;;15.26;100.00;98057.63;4489826;31;20144;-76
2022/06/08 03:10:43;;;;;;;7.10;5.35;;;;;;;15.24;100.00;98063.09;4503036;31;20122;-76
2022/06/08 03:13:23;;;;;;;6.82;5.15;;;;;;;15.25;100.00;98072.66;4502817;31;20167;-76
2022/06/08 03:15:54;;;;;;;7.65;5.20;;;;;;;15.26;100.00;98070.81;4503355;31;20882;-77
2022/06/08 03:18:23;;;;;;;8.50;5.00;;;;;;;15.31;100.00;98078.22;4517213;31;20088;-77
2022/06/08 03:20:51;;;;;;;10.23;5.78;;;;;;;15.33;100.00;98081.47;4517387;31;20111;-76
2022/06/08 03:23:21;;;;;;;10.15;5.90;;;;;;;15.21;100.00;98081.94;4517220;31;20133;-76
2022/06/08 03:25:49;;;;;;;10.93;5.37;;;;;;;15.22;100.00;98080.94;4517079;31;20427;-77
2022/06/08 03:28:17;;;;;;;8.65;5.53;;;;;;;15.13;100.00;98091.78;4517272;31;20468;-76
2022/06/08 03:30:45;;;;;;;11.30;5.65;;;;;;;15.14;100.00;98088.97;4515159;31;20167;-76
2022/06/08 03:33:14;;;;;;;14.00;6.40;;;;;;;15.14;100.00;98096.03;4501119;31;20083;-76
2022/06/08 03:35:41;;;;;;;8.45;6.40;;;;;;;15.20;100.00;98096.16;4500946;31;20092;-76
2022/06/08 03:38:09;;;;;;;7.78;5.95;;;;;;;15.22;100.00;98091.50;4501144;31;20106;-77
2022/06/08 03:40:38;;;;;;;7.87;5.80;;;;;;;15.29;100.00;98091.59;4500692;31;20100;-76
2022/06/08 03:43:05;;;;;;;10.70;5.82;;;;;;;15.25;100.00;98095.59;4500978;31;20080;-76
2022/06/08 03:45:36;;;;;;;8.00;5.72;;;;;;;15.24;100.00;98093.94;4500990;31;20105;-77
2022/06/08 03:48:06;;;;;;;7.35;5.75;;;;;;;15.25;100.00;98092.97;4499962;31;20520;-77
2022/06/08 03:50:33;;;;;;;8.13;6.12;;;;;;;15.29;100.00;98074.91;4500815;31;20096;-77
2022/06/08 03:53:05;;;;;;;8.65;6.22;;;;;;;15.22;100.00;98077.50;4501076;31;20191;-76
2022/06/08 03:55:33;;;;;;;10.57;6.47;;;;;;;15.31;100.00;98073.75;4501117;31;20088;-76
2022/06/08 03:58:01;;;;;;;10.25;6.57;;;;;;;15.29;100.00;98065.22;4499637;31;20140;-77
2022/06/08 04:00:31;;;;;;;8.05;6.22;;;;;;;15.35;100.00;98060.97;4499653;31;20477;-77
2022/06/08 04:03:00;;;;;;;12.82;6.47;;;;;;;15.44;100.00;98068.62;4500881;31;20148;-77
2022/06/08 04:05:28;;;;;;;8.90;6.43;;;;;;;15.40;100.00;98061.25;4499462;31;20084;-77
2022/06/08 04:07:56;;;;;;;10.20;6.05;;;;;;;15.48;100.00;98066.41;4500622;31;20122;-77
2022/06/08 04:10:24;;;;;;;10.20;6.53;;;;;;;15.47;100.00;98083.25;4500639;31;20893;-77
2022/06/08 04:12:51;;;;;;;7.57;5.82;;;;;;;15.56;100.00;98078.69;4501817;31;20096;-77
2022/06/08 04:18:06;;;;;;;9.43;6.50;;;;;;;15.60;100.00;98080.78;4500852;31;20123;-77
2022/06/08 04:20:34;;;;;;;9.00;6.35;;;;;;;15.70;100.00;98088.41;4504694;31;20602;-76
2022/06/08 04:23:02;;;;;;;9.90;6.03;;;;;;;15.78;100.00;98090.13;4513336;31;20433;-76
2022/06/08 04:25:30;;;;;;;8.57;5.60;;;;;;;15.84;100.00;98099.16;4515622;31;20113;-76
2022/06/08 04:27:58;;;;;;;9.98;5.72;;;;;;;16.06;100.00;98094.66;4515345;31;20088;-76
2022/06/08 04:30:26;;;;;;;7.22;5.75;;;;;;;16.21;100.00;98105.97;4515702;31;20209;-77
2022/06/08 04:32:54;;;;;;;8.40;5.78;;;;;;;16.41;100.00;98103.53;4499382;31;20095;-77
2022/06/08 04:35:21;;;;;;;7.47;5.82;;;;;;;16.36;100.00;98108.56;4514843;31;20091;-77
2022/06/08 04:37:48;;;;;;;6.30;4.70;;;;;;;16.51;100.00;98100.53;4515364;31;20095;-77
2022/06/08 04:40:17;;;;;;;7.60;5.20;;;;;;;16.49;100.00;98100.75;4516117;31;20103;-76
2022/06/08 04:42:45;;;;;;;7.43;5.03;;;;;;;16.39;100.00;98107.38;4516619;31;20094;-77
2022/06/08 04:45:14;;;;;;;7.05;5.10;;;;;;;16.35;100.00;98095.53;4516403;31;20092;-76
2022/06/08 04:47:42;;;;;;;11.38;5.30;;;;;;;16.40;100.00;98093.97;4516671;31;20151;-77
2022/06/08 04:50:10;;;;;;;6.22;4.87;;;;;;;16.58;100.00;98095.28;4514318;31;20107;-76
2022/06/08 04:52:38;;;;;;;6.50;5.00;;;;;;;16.59;100.00;98095.09;4514808;31;20099;-76
2022/06/08 04:55:08;;;;;;;9.80;5.22;;;;;;;16.57;100.00;98093.69;4515020;31;20120;-76
2022/06/08 04:57:37;;;;;;;7.12;5.30;;;;;;;16.70;100.00;98087.66;4513487;31;20151;-76
2022/06/08 05:00:08;;;;;;;7.68;5.10;;;;;;;17.05;100.00;98077.94;4514831;31;20468;-77
2022/06/08 05:02:48;;;;;;;7.12;4.55;;;;;;;17.23;100.00;98079.22;4508056;31;20532;-74
2022/06/08 05:05:37;;;;;;;6.72;4.80;;;;;;;17.60;100.00;98087.75;4518361;31;20165;-74
2022/06/08 05:08:08;;;;;;;5.35;4.15;;;;;;;17.71;100.00;98087.16;4517983;31;20100;-76
2022/06/08 05:10:36;;;;;;;5.25;4.03;;;;;;;17.98;100.00;98089.88;4503758;31;20203;-75
2022/06/08 05:13:06;;;;;;;8.70;4.25;;;;;;;17.85;100.00;98091.47;4503929;31;20111;-75
2022/06/08 05:15:36;;;;;;;4.85;3.90;;;;;;;18.04;100.00;98094.38;4518290;31;20448;-74
2022/06/08 05:18:04;;;;;;;4.22;3.58;;;;;;;18.16;100.00;98097.25;4517802;31;20106;-75
2022/06/08 05:20:33;;;;;;;5.03;3.75;;;;;;;18.13;100.00;98095.81;4514900;31;20126;-76
2022/06/08 05:23:03;;;;;;;4.85;3.75;;;;;;;18.25;100.00;98102.16;4506323;31;20134;-75
2022/06/08 05:25:34;;;;;;;4.60;3.90;;;;;;;18.35;100.00;98107.06;4502258;31;20083;-75
2022/06/08 05:28:03;;;;;;;6.15;4.20;;;;;;;18.25;100.00;98122.56;4515759;31;20151;-74
2022/06/08 05:30:32;;;;;;;5.28;4.25;;;;;;;18.46;100.00;98113.59;4533228;31;20092;-74
2022/06/08 05:33:00;;;;;;;6.93;4.28;;;;;;;18.40;100.00;98111.75;4508293;31;20139;-74
2022/06/08 05:35:28;;;;;;;4.45;3.75;;;;;;;18.32;100.00;98111.94;4510764;31;20481;-74
2022/06/08 05:37:56;;;;;;;7.72;4.47;;;;;;;18.37;100.00;98122.78;4512275;31;20118;-74
2022/06/08 05:40:25;;;;;;;5.47;4.43;;;;;;;18.16;100.00;98113.97;4506668;31;20101;-74
2022/06/08 05:42:53;;;;;;;5.30;4.30;;;;;;;18.26;100.00;98111.75;4514469;31;20532;-75
2022/06/08 05:45:23;;;;;;;6.28;4.37;;;;;;;18.10;100.00;98128.03;4507132;31;20091;-74
2022/06/08 05:47:51;;;;;;;6.15;4.60;;;;;;;18.11;100.00;98132.31;4509423;31;20572;-75
2022/06/08 05:50:19;;;;;;;5.62;5.00;;;;;;;17.96;100.00;98134.34;4504154;31;20126;-74
2022/06/08 05:52:47;;;;;;;5.22;4.40;;;;;;;18.04;100.00;98142.91;4509870;31;20170;-74
2022/06/08 05:55:15;;;;;;;6.62;4.95;;;;;;;18.21;100.00;98148.66;4507764;31;20088;-73
2022/06/08 05:57:43;;;;;;;6.20;4.62;;;;;;;18.16;100.00;98155.59;4506415;31;21897;-74
2022/06/08 06:00:15;;;;;;;7.65;4.60;;;;;;;18.24;100.00;98161.50;4514661;31;20064;-74
2022/06/08 06:02:43;;;;;;;7.03;4.72;;;;;;;18.37;100.00;98166.00;4502524;31;20103;-74
2022/06/08 06:05:14;;;;;;;6.18;4.97;;;;;;;18.40;100.00;98167.44;4507239;31;20140;-74
2022/06/08 06:07:42;;;;;;;5.68;4.62;;;;;;;18.50;100.00;98167.88;4512861;31;20092;-77
2022/06/08 06:10:13;;;;;;;5.47;4.55;;;;;;;18.68;100.00;98164.59;4506228;31;20442;-74
2022/06/08 06:12:40;;;;;;;10.38;5.25;;;;;;;18.43;100.00;98159.09;4511363;31;20170;-74
2022/06/08 06:15:09;;;;;;;5.75;5.15;;;;;;;18.51;100.00;98160.72;4501360;31;20103;-75
2022/06/08 06:17:36;;;;;;;7.03;5.40;;;;;;;18.62;100.00;98160.94;4505933;31;20088;-76
2022/06/08 06:20:06;;;;;;;5.37;4.75;;;;;;;18.65;100.00;98156.22;4503678;31;20111;-75
2022/06/08 06:22:35;;;;;;;6.37;5.18;;;;;;;18.66;100.00;98147.25;4509985;31;20194;-74
2022/06/08 06:25:04;;;;;;;7.75;5.32;;;;;;;18.78;100.00;98146.41;4513274;31;20159;-73
2022/06/08 06:27:35;;;;;;;5.18;4.37;;;;;;;18.68;100.00;98146.00;4513726;31;20124;-73
2022/06/08 06:30:05;;;;;;;6.97;5.50;;;;;;;18.94;100.00;98144.38;4504428;31;20099;-73
2022/06/08 06:32:34;;;;;;;7.87;5.57;;;;;;;19.48;100.00;98161.03;4505825;31;20549;-74
2022/06/08 06:35:03;;;;;;;6.50;5.35;;;;;;;19.69;100.00;98147.44;4511774;31;20095;-75
2022/06/08 06:37:31;;;;;;;6.30;5.65;;;;;;;19.82;100.00;98143.16;4508860;31;20495;-74
2022/06/08 06:40:01;;;;;;;6.15;5.28;;;;;;;19.34;100.00;98133.69;4508001;31;20100;-74
2022/06/08 06:42:31;;;;;;;6.82;5.70;;;;;;;19.33;100.00;98140.03;4504462;31;20126;-73
2022/06/08 06:45:05;;;;;;;9.35;5.57;;;;;;;19.29;100.00;98139.63;4516638;31;20083;-73
2022/06/08 06:47:32;;;;;;;7.72;6.12;;;;;;;19.52;100.00;98141.00;4516537;31;20118;-74
2022/06/08 06:50:01;;;;;;;10.73;6.65;;;;;;;19.42;100.00;98128.13;4507636;31;20122;-72
2022/06/08 06:52:30;;;;;;;6.57;5.90;;;;;;;19.32;100.00;98125.94;4505803;31;20142;-73
2022/06/08 06:54:58;;;;;;;6.53;5.68;;;;;;;19.29;100.00;98126.34;4511982;31;20131;-70
2022/06/08 06:57:26;;;;;;;6.87;5.50;;;;;;;19.62;100.00;98117.44;4509382;31;20084;-72
2022/06/08 06:59:53;;;;;;;9.15;5.32;;;;;;;19.58;100.00;98116.22;4513459;31;20599;-72
2022/06/08 07:02:22;;;;;;;7.45;5.15;;;;;;;19.82;100.00;98105.94;4514019;31;20595;-73
2022/06/08 07:04:50;;;;;;;5.25;4.70;;;;;;;20.02;100.00;98117.25;4505035;31;20111;-73
2022/06/08 07:07:17;;;;;;;6.03;5.00;;;;;;;20.03;98.99;98107.44;4506028;31;20783;-71
2022/06/08 07:09:46;;;;;;;6.30;5.15;;;;;;;20.01;99.11;98110.28;4501288;31;20111;-72
2022/06/08 07:12:13;;;;;;;6.85;4.93;;;;;;;19.85;99.86;98105.50;4514874;31;20092;-73
2022/06/08 07:14:43;;;;;;;6.32;5.35;;;;;;;20.06;100.00;98104.34;4506842;31;20179;-72
2022/06/08 07:17:10;;;;;;;5.07;4.57;;;;;;;20.12;98.27;98105.31;4508955;31;20537;-73
2022/06/08 07:19:38;;;;;;;6.18;5.15;;;;;;;20.20;97.51;98102.41;4514541;31;20901;-73
2022/06/08 07:22:05;;;;;;;6.57;4.55;;;;;;;20.01;98.55;98096.19;4509003;31;20134;-74
2022/06/08 07:24:33;;;;;;;7.10;4.85;;;;;;;20.26;98.08;98101.56;4505227;31;20461;-72
2022/06/08 07:27:02;;;;;;;5.15;4.40;;;;;;;20.60;96.08;98101.28;4508446;31;20137;-71
2022/06/08 07:29:30;;;;;;;13.57;4.97;;;;;;;20.50;95.14;98097.28;4510015;31;20108;-75
2022/06/08 07:31:58;;;;;;;6.00;4.95;;;;;;;20.90;96.88;98104.09;4506223;31;20096;-72
2022/06/08 07:34:25;;;;;;;8.65;4.62;;;;;;;21.03;93.29;98095.97;4511423;31;20087;-74
2022/06/08 07:36:53;;;;;;;5.18;4.32;;;;;;;21.16;91.34;98097.66;4508652;31;20087;-74
2022/06/08 07:39:21;;;;;;;7.60;4.75;;;;;;;20.90;89.30;98098.78;4494855;31;21566;-74
2022/06/08 07:41:49;;;;;;;8.27;4.50;;;;;;;21.08;89.76;98103.31;4495404;31;20092;-73
2022/06/08 07:44:17;;;;;;;14.15;6.60;;;;;;;21.48;89.55;98091.34;4496756;31;20118;-75
2022/06/08 07:46:46;;;;;;;7.53;4.65;;;;;;;21.93;90.69;98101.66;4511184;31;20202;-75
2022/06/08 07:52:07;;;;;;;6.12;4.25;;;;;;;21.84;89.37;98095.03;4514611;31;20593;-75
2022/06/08 07:54:34;;;;;;;5.45;4.43;;;;;;;21.76;87.22;98104.16;4510751;31;20091;-75
2022/06/08 07:57:02;;;;;;;4.60;3.97;;;;;;;21.64;85.37;98105.97;4514073;31;20119;-75
2022/06/08 07:59:31;;;;;;;7.10;4.78;;;;;;;21.92;86.64;98102.69;4511178;31;20661;-75
2022/06/08 08:01:58;;;;;;;5.35;4.12;;;;;;;;;;4507013;31;20103;-75
2022/06/08 08:04:27;;;;;;;13.32;5.62;;;;;;;22.11;87.49;98085.59;4506201;31;20110;-75
2022/06/08 08:06:54;;;;;;;6.43;5.30;;;;;;;22.12;89.48;98089.88;4504540;31;20448;-75
2022/06/08 08:09:23;;;;;;;10.10;5.95;;;;;;;22.33;88.22;98104.56;4503768;31;20095;-75
2022/06/08 08:11:52;;;;;;;9.10;5.43;;;;;;;22.24;87.99;98102.44;4506201;31;20143;-76
2022/06/08 08:14:21;;;;;;;6.75;5.28;;;;;;;22.27;88.15;98101.97;4506916;31;20097;-75
2022/06/08 08:16:49;;;;;;;7.75;5.57;;;;;;;22.36;86.18;98103.28;4510238;31;20087;-76
2022/06/08 08:19:22;;;;;;;7.55;6.22;;;;;;;22.49;86.58;98100.41;4507239;31;20259;-75
2022/06/08 08:21:50;;;;;;;11.45;6.70;;;;;;;22.69;85.60;98101.94;4512035;31;20110;-75
2022/06/08 08:24:18;;;;;;;7.55;5.32;;;;;;;22.98;84.89;98100.19;4504449;31;20550;-76
2022/06/08 08:26:47;;;;;;;5.80;4.60;;;;;;;23.41;83.21;98097.31;4512926;31;20099;-75
2022/06/08 08:29:16;;;;;;;5.35;4.68;;;;;;;23.70;80.01;98100.84;4509393;31;20155;-75
2022/06/08 08:31:44;;;;;;;6.87;5.07;;;;;;;24.05;78.49;98094.53;4509333;31;20495;-75
2022/06/08 08:34:11;;;;;;;5.57;4.97;;;;;;;24.43;75.59;98095.69;4491424;31;20122;-75
2022/06/08 08:36:38;;;;;;;7.00;5.00;;;;;;;24.95;73.96;98087.37;4490128;31;20099;-74
2022/06/08 08:39:06;;;;;;;7.07;5.45;;;;;;;24.82;71.36;98090.41;4502294;31;20096;-75
2022/06/08 08:44:38;;;;;;;6.90;4.45;;;;;;;24.39;73.87;98097.22;4496371;31;20159;-73
2022/06/08 08:47:18;;;;;;;7.62;4.90;;;;;;;24.37;73.92;98094.00;4507850;31;20080;-73
2022/06/08 08:50:07;;;;;;;7.47;5.10;;;;;;;23.87;75.33;98093.69;4503656;31;20457;-74
2022/06/08 08:52:39;;;;;;;6.00;5.10;;;;;;;23.69;76.59;98089.31;4504432;31;20107;-74
2022/06/08 08:55:37;;;;;;;8.27;5.72;;;;;;;23.74;76.54;98085.94;4508919;31;20099;-74
2022/06/08 08:58:10;;;;;;;7.30;5.55;;;;;;;23.76;74.96;98088.37;4494499;31;20079;-74
2022/06/08 09:00:52;;;;;;;9.35;5.68;;;;;;;24.50;71.62;98092.84;4507402;31;20107;-75
2022/06/08 09:03:44;;;;;;;9.73;5.62;;;;;;;24.74;70.83;98093.50;4505565;31;20441;-73
2022/06/08 09:06:20;;;;;;;5.87;4.60;;;;;;;24.72;71.85;98098.31;4506756;31;20123;-73
2022/06/08 09:08:51;;;;;;;8.07;5.95;;;;;;;25.10;69.64;98096.69;4511250;31;20565;-74
2022/06/08 09:11:22;;;;;;;6.80;6.05;;;;;;;25.19;63.56;98100.53;4509696;31;20108;-73
2022/06/08 09:13:53;;;;;;;10.30;6.35;;;;;;;24.80;65.36;98096.03;4493503;31;20103;-74
2022/06/08 09:16:37;;;;;;;8.68;6.03;;;;;;;24.65;65.57;98092.28;4488731;31;20397;-74
2022/06/08 09:19:22;;;;;;;8.85;6.03;;;;;;;25.15;64.64;98096.75;4508703;31;20092;-73
2022/06/08 09:22:00;;;;;;;8.27;5.78;;;;;;;25.78;62.05;98091.06;4509859;31;20476;-75
2022/06/08 09:24:37;;;;;;;7.43;6.22;;;;;;;26.14;61.81;98086.84;4506387;31;20617;-74
2022/06/08 09:27:29;;;;;;;9.63;6.07;;;;;;;25.70;60.37;98084.28;4506949;31;20150;-74
2022/06/08 09:30:16;;;;;;;9.00;6.95;;;;;;;26.20;59.73;98075.09;4508214;31;20111;-75
2022/06/08 09:32:49;;;;;;;8.65;7.37;;;;;;;26.13;60.92;98065.63;4505075;31;20430;-74
2022/06/08 09:35:23;;;;;;;8.55;6.85;;;;;;;26.19;61.05;98067.28;4494574;31;20104;-75
2022/06/08 09:37:52;;;;;;;12.25;7.32;;;;;;;26.23;61.75;98059.56;4509915;31;20100;-75
2022/06/08 09:40:38;;;;;;;7.90;6.35;;;;;;;25.65;62.46;98049.34;4489077;31;20136;-75
2022/06/08 09:43:51;;;;;;;8.40;7.50;;;;;;;25.90;64.57;98040.72;4507538;31;20174;-73
2022/06/08 09:52:42;;;;;;;8.82;7.78;;;;;;;26.92;59.02;98026.44;4453136;32;20092;-74
2022/06/08 09:55:44;;;;;;;7.18;6.30;;;;;;;26.83;58.33;98025.28;4454880;32;20116;-74
2022/06/08 09:58:30;;;;;;;11.25;7.32;;;;;;;26.83;58.81;98019.91;4461574;32;20120;-74
2022/06/08 10:01:11;;;;;;;8.10;7.18;;;;;;;26.98;58.68;98013.81;4454499;32;20119;-73
2022/06/08 10:04:06;;;;;;;6.55;5.87;;;;;;;26.82;56.32;98011.06;4449042;32;20139;-73
2022/06/08 10:06:46;;;;;;;8.30;6.87;;;;;;;26.93;58.51;98006.53;4458873;32;20116;-73
2022/06/08 10:09:22;;;;;;;7.00;6.30;;;;;;;26.61;57.97;98001.25;4452977;32;20127;-74
2022/06/08 10:11:54;;;;;;;12.50;7.03;;;;;;;26.10;59.54;97999.88;4459713;32;20155;-73
2022/06/08 10:14:32;;;;;;;7.93;6.78;;;;;;;26.12;59.81;97999.62;4459659;32;20150;-73
2022/06/08 10:17:11;;;;;;;8.70;6.00;;;;;;;26.53;59.18;97992.62;4448372;32;20108;-74
2022/06/08 10:19:51;;;;;;;8.70;6.07;;;;;;;26.77;57.68;97999.47;4468872;32;20537;-74
2022/06/08 10:22:20;;;;;;;8.88;6.80;;;;;;;26.82;58.70;97996.81;4455161;31;20222;-74
2022/06/08 10:24:54;;;;;;;8.23;6.43;;;;;;;26.42;57.52;97992.81;4506252;31;20107;-74
2022/06/08 10:27:30;;;;;;;7.85;5.53;;;;;;;26.30;58.95;97984.94;4516935;31;20087;-74
2022/06/08 10:30:14;;;;;;;6.87;5.87;;;;;;;26.48;59.66;97991.78;4493637;31;20123;-74
2022/06/08 10:32:49;;;;;;;8.60;5.15;;;;;;;26.47;57.91;97990.97;4499267;31;20595;-74
2022/06/08 10:35:25;;;;;;;6.80;5.50;;;;;;;26.51;58.58;97991.25;4508164;31;20212;-74
2022/06/08 10:37:53;;;;;;;9.05;5.25;;;;;;;26.51;58.56;97984.00;4494492;31;20160;-75
2022/06/08 10:40:26;;;;;;;7.22;5.20;;;;;;;26.66;56.82;97986.00;4501458;31;20111;-73
2022/06/08 10:42:54;;;;;;;6.90;5.95;;;;;;;27.08;55.48;97984.28;4495624;31;20102;-74
2022/06/08 10:45:26;;;;;;;8.57;4.85;;;;;;;27.07;56.22;97967.34;4497073;31;20172;-74
2022/06/08 10:48:22;;;;;;;8.20;4.95;;;;;;;26.94;58.00;97967.03;4507402;31;20083;-74
2022/06/08 10:51:09;;;;;;;7.68;5.75;;;;;;;26.78;56.98;97968.84;4491257;31;20477;-73
2022/06/08 10:56:58;;;;;;;5.57;5.00;;;;;;;26.72;55.99;97962.62;4504384;31;20480;-74
2022/06/08 10:59:30;;;;;;;5.18;4.68;;;;;;;26.74;54.73;97968.56;4497200;31;20195;-75
2022/06/08 11:02:15;;;;;;;4.68;4.15;;;;;;;26.75;55.01;97959.44;4503453;31;20117;-74
2022/06/08 11:05:09;;;;;;;4.82;4.30;;;;;;;27.36;53.38;97956.16;4511146;31;20103;-74
2022/06/08 11:08:12;;;;;;;;;;;;;;;27.81;48.66;97964.50;4510374;31;20118;-73
2022/06/08 11:10:50;;;;;;;5.05;4.07;;;;;;;27.36;48.75;97953.47;4464285;32;19992;-74
2022/06/08 11:13:18;;;;;;;6.25;3.85;;;;;;;27.54;46.32;97949.44;4465443;32;20109;-73
2022/06/08 11:15:50;;;;;;;5.47;4.03;;;;;;;27.80;49.38;97957.53;4463899;32;20522;-74
2022/06/08 11:18:23;;;;;;;5.70;3.53;;;;;;;28.09;47.88;97952.41;4467072;32;20561;-74
2022/06/08 11:21:05;;;;;;;6.90;4.07;;;;;;;28.03;46.25;97947.31;4467019;32;20531;-73
2022/06/08 11:23:40;;;;;;;4.22;3.65;;;;;;;27.69;46.33;97954.03;4466507;32;20258;-73
2022/06/08 11:26:17;;;;;;;8.45;3.55;;;;;;;27.03;49.44;97952.81;4468162;32;20123;-74
2022/06/08 11:28:48;;;;;;;4.07;3.53;;;;;;;26.53;48.66;97955.00;4473867;32;20514;-74
2022/06/08 11:31:27;;;;;;;3.62;3.33;;;;;;;26.44;51.59;97945.84;4464458;32;20120;-74
2022/06/08 11:34:16;;;;;;;8.80;3.83;;;;;;;26.09;50.91;97941.88;4463863;32;20208;-73
2022/06/08 11:37:02;;;;;;;5.28;3.65;;;;;;;25.98;53.23;97946.38;4463723;32;20162;-74
2022/06/08 11:39:36;;;;;;;4.55;3.75;;;;;;;25.59;52.28;97943.09;4453249;32;20108;-74
2022/06/08 11:42:33;;;;;;;7.18;3.83;;;;;;;25.67;53.45;97950.66;4466280;32;20096;-73
2022/06/08 11:45:23;;;;;;;8.07;4.00;;;;;;;25.57;53.65;97953.25;4449405;32;20185;-73
2022/06/08 11:47:52;;;;;;;4.30;3.60;;;;;;;25.73;54.59;97952.31;4514962;31;20452;-74
2022/06/08 11:50:22;;;;;;;6.87;4.05;;;;;;;25.75;55.60;97960.91;4510342;31;20414;-73
2022/06/08 11:53:02;;;;;;;7.05;3.92;;;;;;;25.82;54.63;97964.19;4512726;31;20103;-73
2022/06/08 11:55:33;;;;;;;8.10;5.40;;;;;;;25.73;57.93;97970.28;4508746;31;20130;-73
2022/06/08 11:58:04;;;;;;;7.05;5.93;;;;;;;25.19;65.84;97966.50;4497383;31;20124;-73
2022/06/08 12:00:55;;;;;;;9.48;5.40;;;;;;;24.94;69.09;97962.50;4504271;31;20441;-74
2022/06/08 12:03:42;;;;;;;8.73;5.82;;;;;;;24.49;72.99;97974.22;4499321;31;20129;-73
2022/06/08 12:06:13;;;;;;;9.73;5.97;;;;;;;24.06;76.46;97970.41;4512514;31;20087;-74
2022/06/08 12:08:44;;;;;;;6.22;5.62;;;;;;;23.95;78.08;97976.66;4499867;31;20992;-74
2022/06/08 12:11:23;;;;;;;7.32;5.75;;;;;;;24.25;77.88;97969.09;4514220;31;20139;-74
2022/06/08 12:14:14;;;;;;;12.23;6.72;;;;;;;24.62;77.13;97970.41;4509565;31;20182;-74
2022/06/08 12:17:04;;;;;;;8.50;6.15;;;;;;;24.96;74.75;97952.34;4448427;32;20485;-74